SIA916 WSSS-RPLL
Flight info
| Callsign | SIA916 |
|---|---|
| Flight time | 3h 11m |
| Altitude | 38000 |
| Route | TOMAN5B TOMAN L625 LUSMO N884 LUBAN LUBAN1A |
| Aircraft | B77W/H-SDE1E2E3FGHIJ2J3J4J5M1RWXYZ/LB1D1 |
Departure
| Time | 2026-05-07 06:26 |
|---|---|
| Airport | Singapore Changi Airport (WSSS) |
Arrival
| Time | 2026-05-07 09:37 |
|---|---|
| Airport | Ninoy Aquino International Airport (RPLL) |
| Time | Latitude | Longitude | Altitude | Speed | Heading |
|---|---|---|---|---|---|
| 2026-05-07 05:44 | 1.35926 | 103.99208 | 52 ft | 0 kts | 293° |
| 2026-05-07 06:14 | 1.35926 | 103.99209 | 52 ft | 0 kts | 293° |
| 2026-05-07 06:15 | 1.35926 | 103.99210 | 52 ft | 1 kts | 294° |
| 2026-05-07 06:15 | 1.35919 | 103.99223 | 52 ft | 2 kts | 307° |
| 2026-05-07 06:15 | 1.35909 | 103.99234 | 52 ft | 2 kts | 320° |
| 2026-05-07 06:15 | 1.35897 | 103.99243 | 52 ft | 2 kts | 330° |
| 2026-05-07 06:16 | 1.35883 | 103.99249 | 52 ft | 2 kts | 342° |
| 2026-05-07 06:16 | 1.35868 | 103.99253 | 52 ft | 2 kts | 354° |
| 2026-05-07 06:16 | 1.35854 | 103.99253 | 52 ft | 2 kts | 5° |
| 2026-05-07 06:16 | 1.35839 | 103.99251 | 52 ft | 2 kts | 17° |
| 2026-05-07 06:17 | 1.35825 | 103.99246 | 53 ft | 1 kts | 25° |
| 2026-05-07 06:17 | 1.35824 | 103.99245 | 53 ft | 0 kts | 25° |
| 2026-05-07 06:19 | 1.35832 | 103.99249 | 52 ft | 3 kts | 23° |
| 2026-05-07 06:19 | 1.35877 | 103.99268 | 51 ft | 10 kts | 23° |
| 2026-05-07 06:19 | 1.35914 | 103.99337 | 49 ft | 15 kts | 101° |
| 2026-05-07 06:19 | 1.35870 | 103.99458 | 45 ft | 21 kts | 112° |
| 2026-05-07 06:20 | 1.35765 | 103.99522 | 43 ft | 19 kts | 198° |
| 2026-05-07 06:20 | 1.35644 | 103.99472 | 44 ft | 19 kts | 203° |
| 2026-05-07 06:20 | 1.35516 | 103.99419 | 45 ft | 20 kts | 203° |
| 2026-05-07 06:20 | 1.35372 | 103.99358 | 45 ft | 24 kts | 203° |
| 2026-05-07 06:21 | 1.35204 | 103.99288 | 45 ft | 27 kts | 202° |
| 2026-05-07 06:21 | 1.35021 | 103.99209 | 46 ft | 28 kts | 205° |
| 2026-05-07 06:21 | 1.34846 | 103.99133 | 45 ft | 26 kts | 203° |
| 2026-05-07 06:21 | 1.34676 | 103.99061 | 42 ft | 26 kts | 202° |
| 2026-05-07 06:22 | 1.34505 | 103.98989 | 40 ft | 26 kts | 204° |
| 2026-05-07 06:22 | 1.34152 | 103.98840 | 34 ft | 27 kts | 202° |
| 2026-05-07 06:22 | 1.33978 | 103.98766 | 35 ft | 26 kts | 203° |
| 2026-05-07 06:23 | 1.33811 | 103.98695 | 34 ft | 26 kts | 203° |
| 2026-05-07 06:23 | 1.33645 | 103.98624 | 34 ft | 25 kts | 202° |
| 2026-05-07 06:23 | 1.33487 | 103.98558 | 35 ft | 23 kts | 203° |
| 2026-05-07 06:23 | 1.33340 | 103.98496 | 37 ft | 22 kts | 203° |
| 2026-05-07 06:24 | 1.33203 | 103.98438 | 39 ft | 21 kts | 204° |
| 2026-05-07 06:24 | 1.33060 | 103.98377 | 39 ft | 22 kts | 202° |
| 2026-05-07 06:24 | 1.32936 | 103.98403 | 37 ft | 20 kts | 115° |
| 2026-05-07 06:24 | 1.32942 | 103.98524 | 37 ft | 18 kts | 37° |
| 2026-05-07 06:25 | 1.33057 | 103.98574 | 37 ft | 22 kts | 22° |
| 2026-05-07 06:25 | 1.33401 | 103.98718 | 34 ft | 96 kts | 22° |
| 2026-05-07 06:25 | 1.34283 | 103.99093 | 37 ft | 176 kts | 23° |
| 2026-05-07 06:25 | 1.35502 | 103.99595 | 616 ft | 195 kts | 20° |
| 2026-05-07 06:26 | 1.36727 | 104.00089 | 1625 ft | 193 kts | 20° |
| 2026-05-07 06:26 | 1.38003 | 104.00667 | 2136 ft | 208 kts | 25° |
| 2026-05-07 06:26 | 1.39464 | 104.01273 | 2175 ft | 242 kts | 20° |
| 2026-05-07 06:26 | 1.41070 | 104.01989 | 2039 ft | 257 kts | 23° |
| 2026-05-07 06:27 | 1.42776 | 104.02676 | 1940 ft | 263 kts | 22° |
| 2026-05-07 06:27 | 1.44488 | 104.03384 | 1947 ft | 265 kts | 22° |
| 2026-05-07 06:27 | 1.46164 | 104.04182 | 1908 ft | 263 kts | 36° |
| 2026-05-07 06:27 | 1.47373 | 104.05505 | 1890 ft | 261 kts | 63° |
| 2026-05-07 06:28 | 1.47832 | 104.07275 | 1931 ft | 277 kts | 91° |
| 2026-05-07 06:28 | 1.47441 | 104.09141 | 2909 ft | 279 kts | 107° |
| 2026-05-07 06:28 | 1.46724 | 104.10912 | 3622 ft | 270 kts | 112° |
| 2026-05-07 06:28 | 1.45944 | 104.12596 | 3902 ft | 268 kts | 112° |
| 2026-05-07 06:29 | 1.45151 | 104.14286 | 3946 ft | 267 kts | 113° |
| 2026-05-07 06:29 | 1.44364 | 104.15971 | 3954 ft | 267 kts | 113° |
| 2026-05-07 06:29 | 1.43589 | 104.17635 | 3954 ft | 267 kts | 113° |
| 2026-05-07 06:29 | 1.42787 | 104.19366 | 4198 ft | 285 kts | 113° |
| 2026-05-07 06:30 | 1.41977 | 104.21117 | 5423 ft | 277 kts | 113° |
| 2026-05-07 06:30 | 1.41176 | 104.22852 | 6370 ft | 276 kts | 112° |
| 2026-05-07 06:30 | 1.40373 | 104.24591 | 6841 ft | 278 kts | 112° |
| 2026-05-07 06:30 | 1.39558 | 104.26355 | 6938 ft | 279 kts | 112° |
| 2026-05-07 06:31 | 1.38738 | 104.28124 | 6945 ft | 278 kts | 112° |
| 2026-05-07 06:31 | 1.37932 | 104.29866 | 6960 ft | 278 kts | 112° |
| 2026-05-07 06:31 | 1.37116 | 104.31632 | 6959 ft | 278 kts | 112° |
| 2026-05-07 06:31 | 1.36309 | 104.33375 | 6942 ft | 279 kts | 112° |
| 2026-05-07 06:32 | 1.35495 | 104.35137 | 6939 ft | 279 kts | 112° |
| 2026-05-07 06:32 | 1.34683 | 104.36893 | 6939 ft | 279 kts | 112° |
| 2026-05-07 06:32 | 1.33867 | 104.38656 | 6937 ft | 279 kts | 112° |
| 2026-05-07 06:32 | 1.33207 | 104.40468 | 6960 ft | 278 kts | 96° |
| 2026-05-07 06:33 | 1.33085 | 104.42450 | 7375 ft | 291 kts | 88° |
| 2026-05-07 06:33 | 1.33112 | 104.44428 | 8536 ft | 283 kts | 86° |
| 2026-05-07 06:33 | 1.33159 | 104.46361 | 9475 ft | 283 kts | 86° |
| 2026-05-07 06:33 | 1.33209 | 104.48344 | 10254 ft | 289 kts | 86° |
| 2026-05-07 06:34 | 1.33261 | 104.50406 | 10761 ft | 306 kts | 86° |
| 2026-05-07 06:34 | 1.33315 | 104.52555 | 11251 ft | 322 kts | 86° |
| 2026-05-07 06:34 | 1.33373 | 104.54853 | 11719 ft | 339 kts | 86° |
| 2026-05-07 06:34 | 1.33435 | 104.57264 | 12195 ft | 355 kts | 86° |
| 2026-05-07 06:35 | 1.33500 | 104.59788 | 12685 ft | 370 kts | 86° |
| 2026-05-07 06:35 | 1.33569 | 104.62398 | 13123 ft | 384 kts | 86° |
| 2026-05-07 06:35 | 1.33640 | 104.65119 | 13637 ft | 396 kts | 86° |
| 2026-05-07 06:35 | 1.33709 | 104.67855 | 14405 ft | 398 kts | 86° |
| 2026-05-07 06:36 | 1.33779 | 104.70599 | 15162 ft | 400 kts | 86° |
| 2026-05-07 06:36 | 1.33848 | 104.73402 | 15844 ft | 404 kts | 86° |
| 2026-05-07 06:36 | 1.33918 | 104.76200 | 16452 ft | 410 kts | 85° |
| 2026-05-07 06:36 | 1.33987 | 104.79058 | 17122 ft | 412 kts | 85° |
| 2026-05-07 06:37 | 1.34057 | 104.81934 | 17795 ft | 415 kts | 86° |
| 2026-05-07 06:37 | 1.34127 | 104.84793 | 18400 ft | 418 kts | 86° |
| 2026-05-07 06:37 | 1.34198 | 104.87730 | 18965 ft | 423 kts | 86° |
| 2026-05-07 06:37 | 1.34268 | 104.90658 | 19524 ft | 427 kts | 86° |
| 2026-05-07 06:38 | 1.34340 | 104.93618 | 20116 ft | 430 kts | 86° |
| 2026-05-07 06:38 | 1.34412 | 104.96595 | 20660 ft | 433 kts | 86° |
| 2026-05-07 06:38 | 1.34486 | 104.99634 | 21143 ft | 438 kts | 86° |
| 2026-05-07 06:38 | 1.34559 | 105.02655 | 21666 ft | 441 kts | 86° |
| 2026-05-07 06:39 | 1.34633 | 105.05745 | 22200 ft | 443 kts | 87° |
| 2026-05-07 06:39 | 1.34706 | 105.08802 | 22695 ft | 447 kts | 86° |
| 2026-05-07 06:39 | 1.34781 | 105.11911 | 23159 ft | 450 kts | 87° |
| 2026-05-07 06:39 | 1.34857 | 105.15037 | 23601 ft | 454 kts | 86° |
| 2026-05-07 06:40 | 1.34934 | 105.18238 | 24034 ft | 459 kts | 86° |
| 2026-05-07 06:40 | 1.35011 | 105.21414 | 24526 ft | 461 kts | 87° |
| 2026-05-07 06:40 | 1.35088 | 105.24597 | 25014 ft | 463 kts | 87° |
| 2026-05-07 06:40 | 1.35166 | 105.27803 | 25452 ft | 466 kts | 87° |
| 2026-05-07 06:41 | 1.35245 | 105.31084 | 25871 ft | 470 kts | 87° |
| 2026-05-07 06:41 | 1.35323 | 105.34328 | 26293 ft | 473 kts | 87° |
| 2026-05-07 06:41 | 1.35403 | 105.37646 | 26740 ft | 476 kts | 87° |
| 2026-05-07 06:41 | 1.35482 | 105.40936 | 27181 ft | 479 kts | 87° |
| 2026-05-07 06:42 | 1.35562 | 105.44241 | 27608 ft | 482 kts | 87° |
| 2026-05-07 06:42 | 1.35642 | 105.47594 | 28018 ft | 485 kts | 87° |
| 2026-05-07 06:42 | 1.35723 | 105.50954 | 28417 ft | 487 kts | 87° |
| 2026-05-07 06:42 | 1.35806 | 105.54372 | 28782 ft | 491 kts | 87° |
| 2026-05-07 06:43 | 1.35886 | 105.57748 | 29180 ft | 494 kts | 87° |
| 2026-05-07 06:43 | 1.35967 | 105.61166 | 29729 ft | 493 kts | 87° |
| 2026-05-07 06:43 | 1.36048 | 105.64605 | 30395 ft | 490 kts | 87° |
| 2026-05-07 06:43 | 1.36270 | 105.67934 | 31122 ft | 485 kts | 80° |
| 2026-05-07 06:44 | 1.37014 | 105.71182 | 31937 ft | 478 kts | 71° |
| 2026-05-07 06:44 | 1.38248 | 105.74229 | 32573 ft | 475 kts | 63° |
| 2026-05-07 06:44 | 1.39962 | 105.77068 | 33084 ft | 477 kts | 53° |
| 2026-05-07 06:44 | 1.42127 | 105.79610 | 33545 ft | 479 kts | 44° |
| 2026-05-07 06:45 | 1.44645 | 105.81744 | 34039 ft | 480 kts | 35° |
| 2026-05-07 06:45 | 1.47469 | 105.83592 | 34514 ft | 481 kts | 32° |
| 2026-05-07 06:45 | 1.50334 | 105.85322 | 34891 ft | 483 kts | 31° |
| 2026-05-07 06:45 | 1.53255 | 105.87019 | 35302 ft | 484 kts | 30° |
| 2026-05-07 06:46 | 1.56193 | 105.88670 | 35805 ft | 482 kts | 29° |
| 2026-05-07 06:46 | 1.59124 | 105.90286 | 36288 ft | 480 kts | 28° |
| 2026-05-07 06:46 | 1.62096 | 105.91898 | 36695 ft | 480 kts | 28° |
| 2026-05-07 06:46 | 1.65088 | 105.93500 | 36803 ft | 482 kts | 28° |
| 2026-05-07 06:47 | 1.71104 | 105.96681 | 36802 ft | 481 kts | 28° |
| 2026-05-07 06:47 | 1.77060 | 105.99799 | 36804 ft | 481 kts | 28° |
| 2026-05-07 06:48 | 1.83003 | 106.02895 | 36803 ft | 481 kts | 27° |
| 2026-05-07 06:48 | 1.88970 | 106.05994 | 36803 ft | 481 kts | 27° |
| 2026-05-07 06:49 | 1.94941 | 106.09090 | 36801 ft | 481 kts | 27° |
| 2026-05-07 06:49 | 2.00931 | 106.12190 | 36790 ft | 481 kts | 27° |
| 2026-05-07 06:50 | 2.06905 | 106.15281 | 36782 ft | 480 kts | 27° |
| 2026-05-07 06:50 | 2.12869 | 106.18367 | 36781 ft | 481 kts | 27° |
| 2026-05-07 06:51 | 2.18830 | 106.21452 | 36781 ft | 481 kts | 27° |
| 2026-05-07 06:51 | 2.24812 | 106.24547 | 36781 ft | 482 kts | 27° |
| 2026-05-07 06:52 | 2.30788 | 106.27640 | 36781 ft | 482 kts | 28° |
| 2026-05-07 06:52 | 2.36751 | 106.30725 | 36782 ft | 481 kts | 28° |
| 2026-05-07 06:53 | 2.42708 | 106.33808 | 36782 ft | 481 kts | 28° |
| 2026-05-07 06:53 | 2.48645 | 106.36881 | 36785 ft | 481 kts | 28° |
| 2026-05-07 06:54 | 2.54642 | 106.39986 | 36789 ft | 481 kts | 28° |
| 2026-05-07 06:54 | 2.60624 | 106.43083 | 36795 ft | 481 kts | 27° |
| 2026-05-07 06:55 | 2.66560 | 106.46158 | 36797 ft | 481 kts | 28° |
| 2026-05-07 06:55 | 2.72545 | 106.49258 | 36799 ft | 481 kts | 28° |
| 2026-05-07 06:56 | 2.78495 | 106.52341 | 36799 ft | 481 kts | 28° |
| 2026-05-07 06:56 | 2.84478 | 106.55439 | 36800 ft | 482 kts | 28° |
| 2026-05-07 06:57 | 2.90458 | 106.58534 | 36800 ft | 482 kts | 28° |
| 2026-05-07 06:57 | 2.96409 | 106.61613 | 36800 ft | 481 kts | 28° |
| 2026-05-07 06:58 | 3.02398 | 106.64713 | 36801 ft | 480 kts | 28° |
| 2026-05-07 06:58 | 3.08384 | 106.67812 | 36805 ft | 482 kts | 28° |
| 2026-05-07 06:59 | 3.14363 | 106.70908 | 36804 ft | 483 kts | 28° |
| 2026-05-07 06:59 | 3.20329 | 106.73997 | 36803 ft | 482 kts | 28° |
| 2026-05-07 07:00 | 3.26311 | 106.77095 | 36800 ft | 482 kts | 28° |
| 2026-05-07 07:00 | 3.32307 | 106.80200 | 36790 ft | 481 kts | 28° |
| 2026-05-07 07:01 | 3.38261 | 106.83284 | 36782 ft | 480 kts | 28° |
| 2026-05-07 07:01 | 3.44256 | 106.86391 | 36783 ft | 481 kts | 28° |
| 2026-05-07 07:02 | 3.50207 | 106.89474 | 36783 ft | 482 kts | 28° |
| 2026-05-07 07:02 | 3.55932 | 106.92966 | 36736 ft | 479 kts | 40° |
| 2026-05-07 07:03 | 3.60524 | 106.97775 | 36770 ft | 478 kts | 51° |
| 2026-05-07 07:03 | 3.64671 | 107.02999 | 36782 ft | 476 kts | 51° |
| 2026-05-07 07:04 | 3.68830 | 107.08210 | 36781 ft | 476 kts | 51° |
| 2026-05-07 07:04 | 3.72973 | 107.13378 | 36782 ft | 477 kts | 51° |
| 2026-05-07 07:05 | 3.77150 | 107.18578 | 36784 ft | 476 kts | 51° |
| 2026-05-07 07:05 | 3.81294 | 107.23730 | 36783 ft | 478 kts | 51° |
| 2026-05-07 07:06 | 3.85462 | 107.28909 | 36786 ft | 477 kts | 51° |
| 2026-05-07 07:06 | 3.89650 | 107.34113 | 36792 ft | 476 kts | 51° |
| 2026-05-07 07:07 | 3.93801 | 107.39270 | 36795 ft | 476 kts | 51° |
| 2026-05-07 07:07 | 3.97973 | 107.44454 | 36791 ft | 476 kts | 51° |
| 2026-05-07 07:08 | 4.02125 | 107.49613 | 36791 ft | 476 kts | 51° |
| 2026-05-07 07:08 | 4.06321 | 107.54829 | 36792 ft | 477 kts | 51° |
| 2026-05-07 07:09 | 4.10485 | 107.60004 | 36789 ft | 476 kts | 51° |
| 2026-05-07 07:09 | 4.14639 | 107.65169 | 36790 ft | 476 kts | 51° |
| 2026-05-07 07:10 | 4.18805 | 107.70350 | 36789 ft | 476 kts | 51° |
| 2026-05-07 07:10 | 4.22978 | 107.75539 | 36781 ft | 476 kts | 51° |
| 2026-05-07 07:11 | 4.27138 | 107.80714 | 36779 ft | 476 kts | 51° |
| 2026-05-07 07:11 | 4.31274 | 107.85860 | 36781 ft | 476 kts | 51° |
| 2026-05-07 07:12 | 4.35451 | 107.91059 | 36782 ft | 475 kts | 51° |
| 2026-05-07 07:12 | 4.39610 | 107.96236 | 36781 ft | 476 kts | 51° |
| 2026-05-07 07:13 | 4.43757 | 108.01399 | 36781 ft | 474 kts | 51° |
| 2026-05-07 07:13 | 4.47910 | 108.06570 | 36779 ft | 475 kts | 51° |
| 2026-05-07 07:14 | 4.52036 | 108.11708 | 36782 ft | 475 kts | 51° |
| 2026-05-07 07:14 | 4.56203 | 108.16900 | 36780 ft | 474 kts | 51° |
| 2026-05-07 07:15 | 4.60333 | 108.22045 | 36781 ft | 475 kts | 51° |
| 2026-05-07 07:15 | 4.64476 | 108.27207 | 36779 ft | 475 kts | 51° |
| 2026-05-07 07:16 | 4.68629 | 108.32384 | 36779 ft | 475 kts | 51° |
| 2026-05-07 07:16 | 4.72758 | 108.37532 | 36779 ft | 475 kts | 51° |
| 2026-05-07 07:17 | 4.76942 | 108.42705 | 36780 ft | 475 kts | 51° |
| 2026-05-07 07:17 | 4.81112 | 108.47850 | 36780 ft | 475 kts | 51° |
| 2026-05-07 07:18 | 4.85271 | 108.52985 | 36780 ft | 474 kts | 51° |
| 2026-05-07 07:18 | 4.89444 | 108.58138 | 36779 ft | 475 kts | 51° |
| 2026-05-07 07:19 | 4.93608 | 108.63282 | 36778 ft | 475 kts | 51° |
| 2026-05-07 07:19 | 4.97792 | 108.68452 | 36783 ft | 476 kts | 51° |
| 2026-05-07 07:20 | 5.01949 | 108.73590 | 36785 ft | 475 kts | 51° |
| 2026-05-07 07:20 | 5.06117 | 108.78743 | 36788 ft | 475 kts | 51° |
| 2026-05-07 07:21 | 5.10266 | 108.83873 | 36786 ft | 474 kts | 51° |
| 2026-05-07 07:21 | 5.14428 | 108.89020 | 36788 ft | 475 kts | 51° |
| 2026-05-07 07:22 | 5.18598 | 108.94179 | 36783 ft | 476 kts | 51° |
| 2026-05-07 07:22 | 5.22778 | 108.99352 | 36773 ft | 475 kts | 51° |
| 2026-05-07 07:23 | 5.26931 | 109.04492 | 36772 ft | 475 kts | 51° |
| 2026-05-07 07:23 | 5.31093 | 109.09644 | 36778 ft | 475 kts | 51° |
| 2026-05-07 07:24 | 5.35254 | 109.14796 | 36782 ft | 475 kts | 51° |
| 2026-05-07 07:24 | 5.39413 | 109.19949 | 36781 ft | 475 kts | 51° |
| 2026-05-07 07:25 | 5.45655 | 109.27681 | 36781 ft | 474 kts | 51° |
| 2026-05-07 07:26 | 5.49821 | 109.32845 | 36780 ft | 476 kts | 51° |
| 2026-05-07 07:26 | 5.53996 | 109.38020 | 36781 ft | 474 kts | 51° |
| 2026-05-07 07:27 | 5.58183 | 109.43212 | 36780 ft | 475 kts | 51° |
| 2026-05-07 07:27 | 5.62332 | 109.48358 | 36781 ft | 475 kts | 51° |
| 2026-05-07 07:28 | 5.66499 | 109.53527 | 36780 ft | 473 kts | 51° |
| 2026-05-07 07:28 | 5.70639 | 109.58666 | 36779 ft | 474 kts | 51° |
| 2026-05-07 07:29 | 5.74814 | 109.63847 | 36779 ft | 474 kts | 51° |
| 2026-05-07 07:29 | 5.78959 | 109.68993 | 36781 ft | 474 kts | 51° |
| 2026-05-07 07:30 | 5.83117 | 109.74156 | 36782 ft | 474 kts | 51° |
| 2026-05-07 07:30 | 5.87265 | 109.79308 | 36784 ft | 474 kts | 51° |
| 2026-05-07 07:31 | 5.91407 | 109.84456 | 36782 ft | 473 kts | 51° |
| 2026-05-07 07:31 | 5.95557 | 109.89614 | 36783 ft | 475 kts | 51° |
| 2026-05-07 07:32 | 5.99681 | 109.94740 | 36782 ft | 473 kts | 51° |
| 2026-05-07 07:32 | 6.03854 | 109.99930 | 36780 ft | 475 kts | 51° |
| 2026-05-07 07:33 | 6.08023 | 110.05115 | 36782 ft | 475 kts | 51° |
| 2026-05-07 07:33 | 6.12181 | 110.10287 | 36780 ft | 473 kts | 51° |
| 2026-05-07 07:34 | 6.16324 | 110.15443 | 36781 ft | 475 kts | 51° |
| 2026-05-07 07:34 | 6.20462 | 110.20596 | 36778 ft | 473 kts | 51° |
| 2026-05-07 07:35 | 6.24609 | 110.25759 | 36781 ft | 476 kts | 51° |
| 2026-05-07 07:35 | 6.28779 | 110.30952 | 36780 ft | 475 kts | 51° |
| 2026-05-07 07:36 | 6.32951 | 110.36150 | 36782 ft | 475 kts | 51° |
| 2026-05-07 07:36 | 6.37069 | 110.41283 | 36781 ft | 475 kts | 51° |
| 2026-05-07 07:37 | 6.41234 | 110.46474 | 36780 ft | 474 kts | 51° |
| 2026-05-07 07:37 | 6.45420 | 110.51695 | 36779 ft | 477 kts | 51° |
| 2026-05-07 07:38 | 6.49605 | 110.56915 | 36779 ft | 477 kts | 51° |
| 2026-05-07 07:38 | 6.53772 | 110.62113 | 36779 ft | 480 kts | 51° |
| 2026-05-07 07:39 | 6.57941 | 110.67316 | 36785 ft | 477 kts | 51° |
| 2026-05-07 07:39 | 6.62122 | 110.72536 | 36781 ft | 478 kts | 50° |
| 2026-05-07 07:40 | 6.66274 | 110.77721 | 36784 ft | 474 kts | 50° |
| 2026-05-07 07:40 | 6.70420 | 110.82900 | 36781 ft | 479 kts | 51° |
| 2026-05-07 07:41 | 6.74627 | 110.88156 | 36781 ft | 482 kts | 51° |
| 2026-05-07 07:41 | 6.78835 | 110.93417 | 36778 ft | 483 kts | 50° |
| 2026-05-07 07:42 | 6.83063 | 110.98701 | 36781 ft | 486 kts | 50° |
| 2026-05-07 07:42 | 6.87296 | 111.03998 | 36778 ft | 480 kts | 50° |
| 2026-05-07 07:43 | 6.91486 | 111.09239 | 36784 ft | 482 kts | 50° |
| 2026-05-07 07:43 | 6.95668 | 111.14474 | 36784 ft | 480 kts | 50° |
| 2026-05-07 07:44 | 6.99873 | 111.19738 | 36779 ft | 481 kts | 50° |
| 2026-05-07 07:44 | 7.04076 | 111.25000 | 36785 ft | 483 kts | 50° |
| 2026-05-07 07:45 | 7.08302 | 111.30294 | 36785 ft | 484 kts | 50° |
| 2026-05-07 07:45 | 7.12515 | 111.35574 | 36788 ft | 483 kts | 50° |
| 2026-05-07 07:46 | 7.16727 | 111.40854 | 36784 ft | 482 kts | 50° |
| 2026-05-07 07:46 | 7.20911 | 111.46101 | 36788 ft | 480 kts | 50° |
| 2026-05-07 07:47 | 7.25090 | 111.51343 | 36786 ft | 479 kts | 50° |
| 2026-05-07 07:47 | 7.29279 | 111.56606 | 36781 ft | 482 kts | 50° |
| 2026-05-07 07:48 | 7.33467 | 111.61906 | 36784 ft | 483 kts | 50° |
| 2026-05-07 07:48 | 7.37647 | 111.67197 | 36782 ft | 484 kts | 51° |
| 2026-05-07 07:49 | 7.41849 | 111.72515 | 36782 ft | 482 kts | 51° |
| 2026-05-07 07:49 | 7.45994 | 111.77764 | 36783 ft | 478 kts | 50° |
| 2026-05-07 07:50 | 7.50131 | 111.83003 | 36783 ft | 480 kts | 50° |
| 2026-05-07 07:50 | 7.54286 | 111.88266 | 36782 ft | 479 kts | 50° |
| 2026-05-07 07:51 | 7.58441 | 111.93532 | 36784 ft | 479 kts | 50° |
| 2026-05-07 07:51 | 7.62584 | 111.98785 | 36781 ft | 478 kts | 50° |
| 2026-05-07 07:52 | 7.66748 | 112.04064 | 36782 ft | 479 kts | 50° |
| 2026-05-07 07:52 | 7.70910 | 112.09344 | 36781 ft | 479 kts | 50° |
| 2026-05-07 07:53 | 7.75053 | 112.14602 | 36782 ft | 480 kts | 50° |
| 2026-05-07 07:53 | 7.79208 | 112.19875 | 36780 ft | 479 kts | 50° |
| 2026-05-07 07:54 | 7.83397 | 112.25195 | 36781 ft | 478 kts | 50° |
| 2026-05-07 07:54 | 7.87537 | 112.30455 | 36782 ft | 479 kts | 50° |
| 2026-05-07 07:55 | 7.91710 | 112.35758 | 36782 ft | 480 kts | 50° |
| 2026-05-07 07:55 | 7.95848 | 112.41019 | 36780 ft | 479 kts | 50° |
| 2026-05-07 07:56 | 8.00029 | 112.46336 | 36784 ft | 480 kts | 49° |
| 2026-05-07 07:56 | 8.04171 | 112.51605 | 36791 ft | 479 kts | 49° |
| 2026-05-07 07:57 | 8.08306 | 112.56868 | 36801 ft | 479 kts | 49° |
| 2026-05-07 07:57 | 8.12477 | 112.62178 | 36803 ft | 478 kts | 49° |
| 2026-05-07 07:58 | 8.16597 | 112.67426 | 36803 ft | 478 kts | 50° |
| 2026-05-07 07:58 | 8.20742 | 112.72707 | 36797 ft | 479 kts | 50° |
| 2026-05-07 07:59 | 8.24866 | 112.77962 | 36791 ft | 478 kts | 50° |
| 2026-05-07 07:59 | 8.29013 | 112.83250 | 36789 ft | 479 kts | 50° |
| 2026-05-07 08:00 | 8.33155 | 112.88534 | 36790 ft | 479 kts | 49° |
| 2026-05-07 08:00 | 8.37287 | 112.93806 | 36789 ft | 478 kts | 49° |
| 2026-05-07 08:01 | 8.41409 | 112.99067 | 36788 ft | 478 kts | 50° |
| 2026-05-07 08:01 | 8.45546 | 113.04351 | 36787 ft | 477 kts | 50° |
| 2026-05-07 08:02 | 8.49681 | 113.09633 | 36777 ft | 479 kts | 50° |
| 2026-05-07 08:02 | 8.53834 | 113.14941 | 36781 ft | 479 kts | 49° |
| 2026-05-07 08:03 | 8.57968 | 113.20225 | 36778 ft | 480 kts | 49° |
| 2026-05-07 08:03 | 8.62075 | 113.25478 | 36779 ft | 478 kts | 49° |
| 2026-05-07 08:04 | 8.66216 | 113.30776 | 36781 ft | 479 kts | 49° |
| 2026-05-07 08:04 | 8.70345 | 113.36061 | 36781 ft | 479 kts | 49° |
| 2026-05-07 08:05 | 8.74472 | 113.41346 | 36781 ft | 479 kts | 49° |
| 2026-05-07 08:05 | 8.78604 | 113.46638 | 36781 ft | 480 kts | 49° |
| 2026-05-07 08:06 | 8.82739 | 113.51938 | 36781 ft | 481 kts | 49° |
| 2026-05-07 08:06 | 8.86887 | 113.57256 | 36781 ft | 481 kts | 49° |
| 2026-05-07 08:07 | 8.91004 | 113.62536 | 36781 ft | 480 kts | 49° |
| 2026-05-07 08:07 | 8.95143 | 113.67846 | 36783 ft | 481 kts | 49° |
| 2026-05-07 08:08 | 8.99297 | 113.73178 | 36785 ft | 480 kts | 49° |
| 2026-05-07 08:08 | 9.03440 | 113.78498 | 36795 ft | 481 kts | 49° |
| 2026-05-07 08:09 | 9.07587 | 113.83826 | 36801 ft | 482 kts | 49° |
| 2026-05-07 08:09 | 9.11727 | 113.89147 | 36804 ft | 482 kts | 49° |
| 2026-05-07 08:10 | 9.15871 | 113.94475 | 36804 ft | 482 kts | 49° |
| 2026-05-07 08:10 | 9.20030 | 113.99824 | 36804 ft | 482 kts | 49° |
| 2026-05-07 08:11 | 9.24186 | 114.05173 | 36804 ft | 483 kts | 49° |
| 2026-05-07 08:11 | 9.28345 | 114.10526 | 36805 ft | 484 kts | 49° |
| 2026-05-07 08:12 | 9.32505 | 114.15884 | 36804 ft | 484 kts | 49° |
| 2026-05-07 08:12 | 9.36670 | 114.21250 | 36804 ft | 483 kts | 49° |
| 2026-05-07 08:13 | 9.40832 | 114.26617 | 36804 ft | 483 kts | 49° |
| 2026-05-07 08:13 | 9.44982 | 114.31968 | 36802 ft | 484 kts | 49° |
| 2026-05-07 08:14 | 9.49159 | 114.37356 | 36800 ft | 484 kts | 49° |
| 2026-05-07 08:14 | 9.53309 | 114.42712 | 36796 ft | 484 kts | 49° |
| 2026-05-07 08:15 | 9.57459 | 114.48071 | 36796 ft | 485 kts | 49° |
| 2026-05-07 08:15 | 9.61643 | 114.53475 | 36791 ft | 485 kts | 49° |
| 2026-05-07 08:16 | 9.65773 | 114.58813 | 36788 ft | 485 kts | 49° |
| 2026-05-07 08:16 | 9.69938 | 114.64199 | 36786 ft | 485 kts | 49° |
| 2026-05-07 08:17 | 9.74108 | 114.69594 | 36780 ft | 485 kts | 49° |
| 2026-05-07 08:17 | 9.78284 | 114.74998 | 36782 ft | 485 kts | 49° |
| 2026-05-07 08:18 | 9.82448 | 114.80389 | 36780 ft | 486 kts | 49° |
| 2026-05-07 08:18 | 9.86615 | 114.85764 | 36780 ft | 485 kts | 49° |
| 2026-05-07 08:19 | 9.90770 | 114.91117 | 36781 ft | 484 kts | 49° |
| 2026-05-07 08:19 | 9.94942 | 114.96495 | 36780 ft | 485 kts | 49° |
| 2026-05-07 08:20 | 9.99137 | 115.01906 | 36783 ft | 488 kts | 49° |
| 2026-05-07 08:20 | 10.01252 | 115.04635 | 36981 ft | 491 kts | 49° |
| 2026-05-07 08:20 | 10.03342 | 115.07333 | 37446 ft | 489 kts | 49° |
| 2026-05-07 08:20 | 10.05457 | 115.10065 | 37800 ft | 488 kts | 49° |
| 2026-05-07 08:21 | 10.07545 | 115.12760 | 37802 ft | 489 kts | 49° |
| 2026-05-07 08:21 | 10.11727 | 115.18165 | 37807 ft | 487 kts | 49° |
| 2026-05-07 08:22 | 10.15921 | 115.23586 | 37803 ft | 486 kts | 49° |
| 2026-05-07 08:22 | 10.20108 | 115.29000 | 37805 ft | 486 kts | 49° |
| 2026-05-07 08:23 | 10.24274 | 115.34391 | 37807 ft | 485 kts | 49° |
| 2026-05-07 08:23 | 10.28462 | 115.39811 | 37807 ft | 486 kts | 49° |
| 2026-05-07 08:24 | 10.32653 | 115.45239 | 37805 ft | 486 kts | 49° |
| 2026-05-07 08:24 | 10.36830 | 115.50649 | 37804 ft | 487 kts | 49° |
| 2026-05-07 08:25 | 10.41000 | 115.56055 | 37809 ft | 488 kts | 49° |
| 2026-05-07 08:25 | 10.45174 | 115.61467 | 37808 ft | 487 kts | 49° |
| 2026-05-07 08:26 | 10.51481 | 115.69651 | 37804 ft | 487 kts | 49° |
| 2026-05-07 08:26 | 10.55642 | 115.75054 | 37800 ft | 487 kts | 50° |
| 2026-05-07 08:27 | 10.59828 | 115.80491 | 37800 ft | 488 kts | 49° |
| 2026-05-07 08:27 | 10.63998 | 115.85912 | 37797 ft | 489 kts | 49° |
| 2026-05-07 08:28 | 10.68196 | 115.91369 | 37797 ft | 490 kts | 49° |
| 2026-05-07 08:28 | 10.72372 | 115.96802 | 37795 ft | 489 kts | 50° |
| 2026-05-07 08:29 | 10.76595 | 116.02299 | 37795 ft | 490 kts | 49° |
| 2026-05-07 08:29 | 10.80796 | 116.07770 | 37801 ft | 490 kts | 50° |
| 2026-05-07 08:30 | 10.84991 | 116.13236 | 37791 ft | 490 kts | 50° |
| 2026-05-07 08:30 | 10.89178 | 116.18694 | 37784 ft | 491 kts | 49° |
| 2026-05-07 08:31 | 10.93422 | 116.24229 | 37783 ft | 493 kts | 49° |
| 2026-05-07 08:31 | 10.97644 | 116.29738 | 37787 ft | 495 kts | 49° |
| 2026-05-07 08:32 | 11.01897 | 116.35291 | 37789 ft | 494 kts | 49° |
| 2026-05-07 08:32 | 11.06096 | 116.40778 | 37798 ft | 492 kts | 50° |
| 2026-05-07 08:33 | 11.10325 | 116.46304 | 37804 ft | 494 kts | 50° |
| 2026-05-07 08:33 | 11.14523 | 116.51794 | 37806 ft | 494 kts | 49° |
| 2026-05-07 08:34 | 11.18749 | 116.57322 | 37804 ft | 493 kts | 49° |
| 2026-05-07 08:34 | 11.22970 | 116.62846 | 37805 ft | 495 kts | 49° |
| 2026-05-07 08:35 | 11.27204 | 116.68390 | 37801 ft | 496 kts | 50° |
| 2026-05-07 08:35 | 11.31433 | 116.73930 | 37798 ft | 497 kts | 50° |
| 2026-05-07 08:36 | 11.35666 | 116.79479 | 37801 ft | 496 kts | 50° |
| 2026-05-07 08:36 | 11.39896 | 116.85026 | 37800 ft | 496 kts | 50° |
| 2026-05-07 08:37 | 11.44137 | 116.90592 | 37802 ft | 496 kts | 50° |
| 2026-05-07 08:37 | 11.48362 | 116.96139 | 37800 ft | 496 kts | 50° |
| 2026-05-07 08:38 | 11.52597 | 117.01703 | 37802 ft | 498 kts | 50° |
| 2026-05-07 08:38 | 11.56835 | 117.07273 | 37803 ft | 497 kts | 50° |
| 2026-05-07 08:39 | 11.61076 | 117.12851 | 37802 ft | 497 kts | 50° |
| 2026-05-07 08:39 | 11.65324 | 117.18440 | 37803 ft | 498 kts | 50° |
| 2026-05-07 08:40 | 11.69581 | 117.24046 | 37804 ft | 497 kts | 50° |
| 2026-05-07 08:40 | 11.73805 | 117.29611 | 37801 ft | 498 kts | 50° |
| 2026-05-07 08:41 | 11.78058 | 117.35216 | 37804 ft | 497 kts | 50° |
| 2026-05-07 08:41 | 11.82319 | 117.40836 | 37804 ft | 498 kts | 50° |
| 2026-05-07 08:42 | 11.86569 | 117.46445 | 37802 ft | 498 kts | 50° |
| 2026-05-07 08:42 | 11.90817 | 117.52054 | 37806 ft | 498 kts | 50° |
| 2026-05-07 08:43 | 11.95052 | 117.57648 | 37799 ft | 498 kts | 50° |
| 2026-05-07 08:43 | 11.99300 | 117.63264 | 37794 ft | 499 kts | 50° |
| 2026-05-07 08:44 | 12.03557 | 117.68894 | 37785 ft | 499 kts | 50° |
| 2026-05-07 08:44 | 12.07813 | 117.74526 | 37787 ft | 499 kts | 50° |
| 2026-05-07 08:45 | 12.12046 | 117.80133 | 37786 ft | 498 kts | 50° |
| 2026-05-07 08:45 | 12.16264 | 117.85722 | 37784 ft | 496 kts | 50° |
| 2026-05-07 08:46 | 12.20491 | 117.91325 | 37791 ft | 496 kts | 50° |
| 2026-05-07 08:46 | 12.24718 | 117.96933 | 37800 ft | 495 kts | 50° |
| 2026-05-07 08:47 | 12.28896 | 118.02477 | 37804 ft | 495 kts | 50° |
| 2026-05-07 08:47 | 12.33099 | 118.08061 | 37803 ft | 496 kts | 50° |
| 2026-05-07 08:48 | 12.37300 | 118.13643 | 37804 ft | 494 kts | 50° |
| 2026-05-07 08:48 | 12.41526 | 118.19262 | 37806 ft | 495 kts | 50° |
| 2026-05-07 08:49 | 12.45710 | 118.24830 | 37805 ft | 492 kts | 50° |
| 2026-05-07 08:49 | 12.49894 | 118.30399 | 37804 ft | 494 kts | 50° |
| 2026-05-07 08:50 | 12.54068 | 118.35959 | 37804 ft | 494 kts | 50° |
| 2026-05-07 08:50 | 12.58247 | 118.41530 | 37804 ft | 492 kts | 50° |
| 2026-05-07 08:51 | 12.62421 | 118.47097 | 37803 ft | 493 kts | 50° |
| 2026-05-07 08:51 | 12.66602 | 118.52675 | 37804 ft | 495 kts | 50° |
| 2026-05-07 08:52 | 12.70800 | 118.58281 | 37801 ft | 492 kts | 50° |
| 2026-05-07 08:52 | 12.74936 | 118.63808 | 37802 ft | 492 kts | 50° |
| 2026-05-07 08:53 | 12.79109 | 118.69386 | 37798 ft | 492 kts | 50° |
| 2026-05-07 08:53 | 12.83272 | 118.74954 | 37798 ft | 492 kts | 50° |
| 2026-05-07 08:54 | 12.87425 | 118.80514 | 37801 ft | 492 kts | 50° |
| 2026-05-07 08:54 | 12.91625 | 118.86139 | 37800 ft | 494 kts | 50° |
| 2026-05-07 08:55 | 12.95802 | 118.91737 | 37794 ft | 493 kts | 50° |
| 2026-05-07 08:55 | 12.99956 | 118.97308 | 37786 ft | 492 kts | 50° |
| 2026-05-07 08:56 | 13.04122 | 119.02868 | 37785 ft | 492 kts | 50° |
| 2026-05-07 08:56 | 13.08340 | 119.08418 | 37782 ft | 492 kts | 50° |
| 2026-05-07 08:57 | 13.12552 | 119.13967 | 37782 ft | 492 kts | 50° |
| 2026-05-07 08:57 | 13.16777 | 119.19540 | 37781 ft | 491 kts | 50° |
| 2026-05-07 08:58 | 13.20984 | 119.25092 | 37781 ft | 493 kts | 50° |
| 2026-05-07 08:58 | 13.25179 | 119.30636 | 37659 ft | 482 kts | 50° |
| 2026-05-07 08:59 | 13.27245 | 119.33366 | 36806 ft | 481 kts | 50° |
| 2026-05-07 08:59 | 13.29318 | 119.36105 | 35435 ft | 491 kts | 50° |
| 2026-05-07 08:59 | 13.31440 | 119.38907 | 33900 ft | 502 kts | 50° |
| 2026-05-07 08:59 | 13.33605 | 119.41765 | 32178 ft | 515 kts | 50° |
| 2026-05-07 09:00 | 13.35794 | 119.44657 | 30914 ft | 518 kts | 50° |
| 2026-05-07 09:00 | 13.37978 | 119.47546 | 30288 ft | 507 kts | 50° |
| 2026-05-07 09:00 | 13.40109 | 119.50366 | 29931 ft | 492 kts | 49° |
| 2026-05-07 09:00 | 13.42202 | 119.53138 | 29404 ft | 482 kts | 49° |
| 2026-05-07 09:01 | 13.44224 | 119.55817 | 28708 ft | 477 kts | 49° |
| 2026-05-07 09:01 | 13.46258 | 119.58514 | 27943 ft | 472 kts | 49° |
| 2026-05-07 09:01 | 13.48242 | 119.61144 | 27196 ft | 468 kts | 50° |
| 2026-05-07 09:01 | 13.50223 | 119.63773 | 26472 ft | 462 kts | 50° |
| 2026-05-07 09:02 | 13.52166 | 119.66351 | 25769 ft | 457 kts | 50° |
| 2026-05-07 09:02 | 13.54105 | 119.68926 | 25043 ft | 452 kts | 50° |
| 2026-05-07 09:02 | 13.56013 | 119.71461 | 24313 ft | 448 kts | 51° |
| 2026-05-07 09:02 | 13.57903 | 119.73972 | 23573 ft | 444 kts | 51° |
| 2026-05-07 09:03 | 13.59777 | 119.76463 | 22871 ft | 439 kts | 51° |
| 2026-05-07 09:03 | 13.61636 | 119.78934 | 22173 ft | 434 kts | 51° |
| 2026-05-07 09:03 | 13.63452 | 119.81349 | 21483 ft | 430 kts | 51° |
| 2026-05-07 09:03 | 13.65282 | 119.83783 | 20809 ft | 425 kts | 51° |
| 2026-05-07 09:04 | 13.67070 | 119.86161 | 20116 ft | 421 kts | 51° |
| 2026-05-07 09:04 | 13.68836 | 119.88512 | 19426 ft | 417 kts | 51° |
| 2026-05-07 09:04 | 13.70614 | 119.90878 | 18748 ft | 413 kts | 51° |
| 2026-05-07 09:04 | 13.72346 | 119.93185 | 18031 ft | 410 kts | 51° |
| 2026-05-07 09:05 | 13.74083 | 119.95499 | 17382 ft | 405 kts | 51° |
| 2026-05-07 09:05 | 13.75790 | 119.97773 | 16804 ft | 399 kts | 51° |
| 2026-05-07 09:05 | 13.77449 | 119.99987 | 16512 ft | 384 kts | 51° |
| 2026-05-07 09:05 | 13.79041 | 120.02114 | 16434 ft | 365 kts | 51° |
| 2026-05-07 09:06 | 13.80558 | 120.04147 | 16312 ft | 348 kts | 51° |
| 2026-05-07 09:06 | 13.81989 | 120.06069 | 16170 ft | 333 kts | 52° |
| 2026-05-07 09:06 | 13.83371 | 120.07927 | 16017 ft | 319 kts | 52° |
| 2026-05-07 09:06 | 13.84687 | 120.09691 | 15888 ft | 305 kts | 51° |
| 2026-05-07 09:07 | 13.86044 | 120.11341 | 15792 ft | 307 kts | 46° |
| 2026-05-07 09:07 | 13.87554 | 120.12979 | 15625 ft | 316 kts | 45° |
| 2026-05-07 09:07 | 13.89082 | 120.14618 | 15440 ft | 316 kts | 45° |
| 2026-05-07 09:07 | 13.90587 | 120.16234 | 15273 ft | 314 kts | 46° |
| 2026-05-07 09:08 | 13.92100 | 120.17860 | 15116 ft | 313 kts | 46° |
| 2026-05-07 09:08 | 13.93600 | 120.19475 | 14954 ft | 312 kts | 46° |
| 2026-05-07 09:08 | 13.95109 | 120.21098 | 14814 ft | 312 kts | 46° |
| 2026-05-07 09:08 | 13.96616 | 120.22721 | 14648 ft | 312 kts | 46° |
| 2026-05-07 09:09 | 13.98112 | 120.24331 | 14472 ft | 310 kts | 46° |
| 2026-05-07 09:09 | 13.99600 | 120.25935 | 14316 ft | 308 kts | 46° |
| 2026-05-07 09:09 | 14.01071 | 120.27518 | 14164 ft | 308 kts | 46° |
| 2026-05-07 09:09 | 14.02564 | 120.29127 | 14015 ft | 308 kts | 46° |
| 2026-05-07 09:10 | 14.04041 | 120.30719 | 13863 ft | 306 kts | 46° |
| 2026-05-07 09:10 | 14.05503 | 120.32295 | 13694 ft | 307 kts | 46° |
| 2026-05-07 09:10 | 14.06971 | 120.33876 | 13533 ft | 305 kts | 46° |
| 2026-05-07 09:10 | 14.08435 | 120.35454 | 13392 ft | 306 kts | 46° |
| 2026-05-07 09:11 | 14.09912 | 120.37047 | 13252 ft | 304 kts | 46° |
| 2026-05-07 09:11 | 14.11370 | 120.38621 | 13105 ft | 303 kts | 46° |
| 2026-05-07 09:11 | 14.12832 | 120.40198 | 12989 ft | 303 kts | 46° |
| 2026-05-07 09:11 | 14.14299 | 120.41782 | 12835 ft | 302 kts | 46° |
| 2026-05-07 09:12 | 14.15737 | 120.43333 | 12683 ft | 300 kts | 46° |
| 2026-05-07 09:12 | 14.17173 | 120.44883 | 12535 ft | 301 kts | 46° |
| 2026-05-07 09:12 | 14.18630 | 120.46457 | 12363 ft | 299 kts | 46° |
| 2026-05-07 09:12 | 14.20059 | 120.48000 | 12222 ft | 298 kts | 46° |
| 2026-05-07 09:13 | 14.21506 | 120.49548 | 12086 ft | 297 kts | 43° |
| 2026-05-07 09:13 | 14.23187 | 120.50794 | 11944 ft | 299 kts | 30° |
| 2026-05-07 09:13 | 14.25010 | 120.51845 | 11796 ft | 299 kts | 28° |
| 2026-05-07 09:13 | 14.26828 | 120.52854 | 11623 ft | 298 kts | 28° |
| 2026-05-07 09:14 | 14.28660 | 120.53873 | 11504 ft | 296 kts | 28° |
| 2026-05-07 09:14 | 14.30472 | 120.54884 | 11346 ft | 297 kts | 28° |
| 2026-05-07 09:14 | 14.32285 | 120.55898 | 11175 ft | 295 kts | 28° |
| 2026-05-07 09:14 | 14.34084 | 120.56904 | 11036 ft | 294 kts | 28° |
| 2026-05-07 09:15 | 14.35892 | 120.57916 | 10905 ft | 294 kts | 28° |
| 2026-05-07 09:15 | 14.37705 | 120.58930 | 10754 ft | 294 kts | 28° |
| 2026-05-07 09:15 | 14.39496 | 120.59933 | 10606 ft | 292 kts | 28° |
| 2026-05-07 09:15 | 14.41272 | 120.60928 | 10461 ft | 291 kts | 28° |
| 2026-05-07 09:16 | 14.43074 | 120.61937 | 10302 ft | 290 kts | 28° |
| 2026-05-07 09:16 | 14.44843 | 120.62928 | 10151 ft | 289 kts | 28° |
| 2026-05-07 09:16 | 14.46615 | 120.63921 | 10002 ft | 287 kts | 28° |
| 2026-05-07 09:16 | 14.48331 | 120.64882 | 9863 ft | 278 kts | 28° |
| 2026-05-07 09:17 | 14.50039 | 120.65839 | 9718 ft | 274 kts | 28° |
| 2026-05-07 09:17 | 14.51707 | 120.66773 | 9588 ft | 276 kts | 28° |
| 2026-05-07 09:17 | 14.53397 | 120.67719 | 9430 ft | 274 kts | 28° |
| 2026-05-07 09:17 | 14.55067 | 120.68655 | 9271 ft | 272 kts | 28° |
| 2026-05-07 09:18 | 14.56751 | 120.69601 | 9132 ft | 272 kts | 28° |
| 2026-05-07 09:18 | 14.58411 | 120.70532 | 8983 ft | 273 kts | 28° |
| 2026-05-07 09:18 | 14.60077 | 120.71467 | 8817 ft | 270 kts | 28° |
| 2026-05-07 09:18 | 14.61734 | 120.72396 | 8679 ft | 271 kts | 28° |
| 2026-05-07 09:19 | 14.63393 | 120.73328 | 8535 ft | 270 kts | 28° |
| 2026-05-07 09:19 | 14.65042 | 120.74253 | 8392 ft | 270 kts | 28° |
| 2026-05-07 09:19 | 14.66693 | 120.75190 | 8247 ft | 269 kts | 31° |
| 2026-05-07 09:19 | 14.68045 | 120.76495 | 8025 ft | 266 kts | 55° |
| 2026-05-07 09:20 | 14.68940 | 120.78142 | 7924 ft | 264 kts | 62° |
| 2026-05-07 09:20 | 14.69728 | 120.79872 | 7810 ft | 265 kts | 70° |
| 2026-05-07 09:20 | 14.70009 | 120.81747 | 7728 ft | 265 kts | 85° |
| 2026-05-07 09:20 | 14.70069 | 120.83636 | 7720 ft | 265 kts | 85° |
| 2026-05-07 09:21 | 14.70444 | 120.85493 | 7765 ft | 264 kts | 62° |
| 2026-05-07 09:21 | 14.71329 | 120.87148 | 7785 ft | 266 kts | 58° |
| 2026-05-07 09:21 | 14.72280 | 120.88802 | 7771 ft | 265 kts | 57° |
| 2026-05-07 09:21 | 14.73231 | 120.90452 | 7766 ft | 265 kts | 57° |
| 2026-05-07 09:22 | 14.74140 | 120.92089 | 7738 ft | 262 kts | 64° |
| 2026-05-07 09:22 | 14.74541 | 120.93846 | 7623 ft | 247 kts | 86° |
| 2026-05-07 09:22 | 14.74470 | 120.95560 | 7581 ft | 230 kts | 89° |
| 2026-05-07 09:22 | 14.74370 | 120.97159 | 7556 ft | 216 kts | 89° |
| 2026-05-07 09:23 | 14.74277 | 120.98722 | 7022 ft | 226 kts | 89° |
| 2026-05-07 09:23 | 14.74176 | 121.00354 | 6464 ft | 233 kts | 90° |
| 2026-05-07 09:23 | 14.74068 | 121.02016 | 6105 ft | 231 kts | 90° |
| 2026-05-07 09:23 | 14.73957 | 121.03671 | 5767 ft | 230 kts | 90° |
| 2026-05-07 09:24 | 14.73843 | 121.05315 | 5417 ft | 228 kts | 90° |
| 2026-05-07 09:24 | 14.73727 | 121.06931 | 5078 ft | 226 kts | 90° |
| 2026-05-07 09:24 | 14.73606 | 121.08535 | 4971 ft | 225 kts | 90° |
| 2026-05-07 09:24 | 14.73481 | 121.10143 | 4966 ft | 223 kts | 90° |
| 2026-05-07 09:25 | 14.73350 | 121.11734 | 4970 ft | 223 kts | 91° |
| 2026-05-07 09:25 | 14.73203 | 121.13329 | 4976 ft | 223 kts | 91° |
| 2026-05-07 09:25 | 14.72991 | 121.14931 | 4964 ft | 224 kts | 96° |
| 2026-05-07 09:25 | 14.72834 | 121.16550 | 4994 ft | 226 kts | 89° |
| 2026-05-07 09:26 | 14.72729 | 121.18149 | 4984 ft | 224 kts | 90° |
| 2026-05-07 09:26 | 14.72593 | 121.19762 | 4991 ft | 224 kts | 91° |
| 2026-05-07 09:26 | 14.72444 | 121.21364 | 4999 ft | 224 kts | 91° |
| 2026-05-07 09:26 | 14.72293 | 121.22961 | 4996 ft | 224 kts | 91° |
| 2026-05-07 09:27 | 14.72142 | 121.24564 | 5009 ft | 224 kts | 91° |
| 2026-05-07 09:27 | 14.71991 | 121.26163 | 5004 ft | 223 kts | 91° |
| 2026-05-07 09:27 | 14.71691 | 121.29341 | 5005 ft | 224 kts | 91° |
| 2026-05-07 09:28 | 14.71540 | 121.30938 | 5011 ft | 223 kts | 91° |
| 2026-05-07 09:28 | 14.71389 | 121.32533 | 5017 ft | 222 kts | 91° |
| 2026-05-07 09:28 | 14.71238 | 121.34124 | 5015 ft | 221 kts | 91° |
| 2026-05-07 09:28 | 14.70958 | 121.35656 | 4950 ft | 213 kts | 109° |
| 2026-05-07 09:29 | 14.70133 | 121.36871 | 4928 ft | 207 kts | 132° |
| 2026-05-07 09:29 | 14.68875 | 121.37613 | 4931 ft | 211 kts | 158° |
| 2026-05-07 09:29 | 14.67413 | 121.37741 | 4934 ft | 215 kts | 183° |
| 2026-05-07 09:29 | 14.65991 | 121.37182 | 4924 ft | 218 kts | 211° |
| 2026-05-07 09:30 | 14.64960 | 121.36034 | 4919 ft | 221 kts | 238° |
| 2026-05-07 09:30 | 14.64529 | 121.34528 | 4925 ft | 221 kts | 266° |
| 2026-05-07 09:30 | 14.64733 | 121.32983 | 4957 ft | 218 kts | 282° |
| 2026-05-07 09:30 | 14.65096 | 121.31456 | 4995 ft | 218 kts | 282° |
| 2026-05-07 09:31 | 14.65412 | 121.29919 | 5013 ft | 217 kts | 270° |
| 2026-05-07 09:31 | 14.65168 | 121.28376 | 5019 ft | 219 kts | 249° |
| 2026-05-07 09:31 | 14.64634 | 121.26956 | 4852 ft | 208 kts | 242° |
| 2026-05-07 09:31 | 14.64014 | 121.25623 | 4801 ft | 205 kts | 239° |
| 2026-05-07 09:32 | 14.63345 | 121.24339 | 4536 ft | 199 kts | 237° |
| 2026-05-07 09:32 | 14.62675 | 121.23109 | 4296 ft | 196 kts | 237° |
| 2026-05-07 09:32 | 14.62003 | 121.21895 | 4043 ft | 192 kts | 236° |
| 2026-05-07 09:32 | 14.61330 | 121.20690 | 3806 ft | 198 kts | 236° |
| 2026-05-07 09:33 | 14.60642 | 121.19461 | 3544 ft | 196 kts | 236° |
| 2026-05-07 09:33 | 14.59973 | 121.18260 | 3294 ft | 194 kts | 236° |
| 2026-05-07 09:33 | 14.59299 | 121.17051 | 3042 ft | 191 kts | 236° |
| 2026-05-07 09:33 | 14.58636 | 121.15864 | 2804 ft | 189 kts | 236° |
| 2026-05-07 09:34 | 14.57991 | 121.14709 | 2551 ft | 185 kts | 236° |
| 2026-05-07 09:34 | 14.57363 | 121.13583 | 2312 ft | 178 kts | 235° |
| 2026-05-07 09:34 | 14.56747 | 121.12479 | 2089 ft | 177 kts | 236° |
| 2026-05-07 09:34 | 14.56134 | 121.11377 | 1862 ft | 175 kts | 234° |
| 2026-05-07 09:35 | 14.55529 | 121.10295 | 1640 ft | 168 kts | 233° |
| 2026-05-07 09:35 | 14.54948 | 121.09261 | 1437 ft | 166 kts | 234° |
| 2026-05-07 09:35 | 14.54370 | 121.08223 | 1209 ft | 164 kts | 235° |
| 2026-05-07 09:35 | 14.53801 | 121.07201 | 1008 ft | 164 kts | 234° |
| 2026-05-07 09:36 | 14.53234 | 121.06189 | 817 ft | 158 kts | 233° |
| 2026-05-07 09:36 | 14.52668 | 121.05218 | 616 ft | 156 kts | 233° |
| 2026-05-07 09:36 | 14.52113 | 121.04199 | 459 ft | 163 kts | 237° |
| 2026-05-07 09:36 | 14.51562 | 121.03198 | 208 ft | 160 kts | 236° |
| 2026-05-07 09:37 | 14.51026 | 121.02252 | 67 ft | 139 kts | 235° |
| 2026-05-07 09:37 | 14.50618 | 121.01512 | 54 ft | 96 kts | 244° |
| 2026-05-07 09:37 | 14.50365 | 121.01063 | 44 ft | 39 kts | 244° |
| 2026-05-07 09:37 | 14.50300 | 121.00873 | 45 ft | 22 kts | 257° |
| 2026-05-07 09:38 | 14.50277 | 121.00711 | 45 ft | 9 kts | 261° |
| 2026-05-07 09:38 | 14.50277 | 121.00622 | 45 ft | 21 kts | 265° |
| 2026-05-07 09:38 | 14.50190 | 121.00460 | 43 ft | 18 kts | 239° |
| 2026-05-07 09:38 | 14.50160 | 121.00407 | 42 ft | 0 kts | 241° |
| 2026-05-07 09:39 | 14.50152 | 121.00380 | 42 ft | 7 kts | 265° |
| 2026-05-07 09:39 | 14.50195 | 121.00339 | 43 ft | 11 kts | 21° |
| 2026-05-07 09:39 | 14.50254 | 121.00422 | 46 ft | 17 kts | 58° |
| 2026-05-07 09:39 | 14.50324 | 121.00547 | 45 ft | 23 kts | 60° |
| 2026-05-07 09:40 | 14.50404 | 121.00694 | 47 ft | 22 kts | 60° |
| 2026-05-07 09:40 | 14.50480 | 121.00832 | 46 ft | 21 kts | 59° |
| 2026-05-07 09:40 | 14.50554 | 121.00964 | 47 ft | 20 kts | 60° |
| 2026-05-07 09:40 | 14.50620 | 121.01083 | 49 ft | 17 kts | 60° |
| 2026-05-07 09:41 | 14.50679 | 121.01188 | 52 ft | 16 kts | 59° |
| 2026-05-07 09:41 | 14.50736 | 121.01289 | 55 ft | 16 kts | 60° |
| 2026-05-07 09:41 | 14.50794 | 121.01392 | 57 ft | 17 kts | 60° |
| 2026-05-07 09:41 | 14.50851 | 121.01496 | 61 ft | 16 kts | 60° |
| 2026-05-07 09:42 | 14.50916 | 121.01612 | 59 ft | 19 kts | 60° |
| 2026-05-07 09:42 | 14.50978 | 121.01726 | 60 ft | 16 kts | 60° |
| 2026-05-07 09:42 | 14.51037 | 121.01829 | 59 ft | 17 kts | 52° |
| 2026-05-07 09:42 | 14.51139 | 121.01812 | 60 ft | 18 kts | 318° |
| 2026-05-07 09:43 | 14.51235 | 121.01714 | 62 ft | 20 kts | 315° |
| 2026-05-07 09:43 | 14.51344 | 121.01601 | 64 ft | 23 kts | 315° |
| 2026-05-07 09:43 | 14.51471 | 121.01469 | 61 ft | 27 kts | 314° |
| 2026-05-07 09:43 | 14.51600 | 121.01335 | 59 ft | 22 kts | 315° |
| 2026-05-07 09:44 | 14.51683 | 121.01350 | 58 ft | 12 kts | 45° |
| 2026-05-07 09:44 | 14.51724 | 121.01391 | 59 ft | 4 kts | 44° |
| 2026-05-07 09:44 | 14.51741 | 121.01408 | 59 ft | 2 kts | 45° |
| 2026-05-07 09:44 | 14.51750 | 121.01417 | 59 ft | 1 kts | 45° |
| 2026-05-07 09:45 | 14.51752 | 121.01419 | 59 ft | 0 kts | 45° |